Time;durP1;ratioP1;P1;durP2;ratioP2;P2;SDS_P1;SDS_P2;PMS_P1;PMS_P2;Temp;Humidity;BMP_temperature;BMP_pressure;BME280_temperature;BME280_humidity;BME280_pressure;Samples;Min_cycle;Max_cycle;Signal;HPM_P1;HPM_P2
2021/04/05 00:01:07;;;;;;;4.82;2.20;;;5.60;75.20;;;;;;5114492;28;20043;-73
2021/04/05 00:03:33;;;;;;;4.20;1.85;;;5.50;75.20;;;;;;5078379;28;20044;-72
2021/04/05 00:05:58;;;;;;;4.43;2.05;;;5.50;75.30;;;;;;5115050;28;20036;-73
2021/04/05 00:08:24;;;;;;;3.85;1.85;;;5.50;75.40;;;;;;5114379;28;20032;-73
2021/04/05 00:10:53;;;;;;;3.58;1.95;;;5.40;75.40;;;;;;5114587;28;20118;-73
2021/04/05 00:13:28;;;;;;;5.20;2.17;;;5.40;75.50;;;;;;5114403;28;20050;-73
2021/04/05 00:15:55;;;;;;;5.70;2.38;;;5.40;75.60;;;;;;5095397;28;20043;-73
2021/04/05 00:18:22;;;;;;;3.92;1.77;;;5.40;75.60;;;;;;5114606;28;20040;-73
2021/04/05 00:20:54;;;;;;;4.50;2.03;;;5.40;75.70;;;;;;5114387;28;20032;-73
2021/04/05 00:23:20;;;;;;;4.38;2.20;;;5.40;75.80;;;;;;5096207;28;20119;-73
2021/04/05 00:25:46;;;;;;;4.43;1.90;;;5.40;75.80;;;;;;5114688;28;20119;-73
2021/04/05 00:28:12;;;;;;;4.53;2.20;;;5.40;75.80;;;;;;5114244;28;20048;-73
2021/04/05 00:30:38;;;;;;;4.15;1.80;;;5.30;75.80;;;;;;5096314;28;20043;-73
2021/04/05 00:33:05;;;;;;;3.90;1.60;;;5.50;75.90;;;;;;5114299;28;20043;-73
2021/04/05 00:35:33;;;;;;;4.43;2.03;;;5.40;75.90;;;;;;5095990;28;20401;-72
2021/04/05 00:38:02;;;;;;;4.82;1.60;;;5.40;75.90;;;;;;5096049;28;20036;-72
2021/04/05 00:40:32;;;;;;;2.72;1.42;;;5.40;76.00;;;;;;5114508;28;20088;-72
2021/04/05 00:42:58;;;;;;;2.95;1.35;;;5.40;75.90;;;;;;5096913;28;20126;-72
2021/04/05 00:45:24;;;;;;;3.85;1.73;;;5.40;75.90;;;;;;5114089;28;20165;-72
2021/04/05 00:47:52;;;;;;;3.90;2.00;;;5.40;76.00;;;;;;5114196;28;20040;-73
2021/04/05 00:50:27;;;;;;;4.07;1.92;;;5.40;76.00;;;;;;5114196;28;20105;-72
2021/04/05 00:52:56;;;;;;;5.22;2.05;;;5.40;76.00;;;;;;5113831;28;20126;-73
2021/04/05 00:55:23;;;;;;;3.53;1.90;;;5.40;75.90;;;;;;5113921;28;20035;-73
2021/04/05 00:57:50;;;;;;;3.80;1.77;;;5.40;76.00;;;;;;5114385;28;20043;-73
2021/04/05 01:00:37;;;;;;;3.45;1.73;;;5.40;76.00;;;;;;5113725;28;20527;-73
2021/04/05 01:03:04;;;;;;;4.28;1.80;;;5.50;76.00;;;;;;5113724;28;20039;-73
2021/04/05 01:05:30;;;;;;;5.38;2.40;;;5.50;75.90;;;;;;5113735;28;20051;-73
2021/04/05 01:07:56;;;;;;;5.07;2.40;;;5.50;75.90;;;;;;5113928;28;20039;-72
2021/04/05 01:10:23;;;;;;;5.00;2.47;;;5.50;75.90;;;;;;5113786;28;20481;-72
2021/04/05 01:12:49;;;;;;;5.70;2.53;;;5.60;75.90;;;;;;5113616;28;20044;-72
2021/04/05 01:15:16;;;;;;;3.95;1.95;;;5.50;75.90;;;;;;5113456;28;20090;-73
2021/04/05 01:17:42;;;;;;;5.97;2.20;;;5.50;75.90;;;;;;5113887;28;20486;-73
2021/04/05 01:20:11;;;;;;;4.43;2.35;;;5.50;75.90;;;;;;5113682;28;20370;-73
2021/04/05 01:22:37;;;;;;;5.75;3.08;;;5.50;75.90;;;;;;5113488;28;20043;-73
2021/04/05 01:25:07;;;;;;;5.93;3.20;;;5.60;76.00;;;;;;5113398;28;20035;-72
2021/04/05 01:27:33;;;;;;;7.25;2.80;;;5.60;76.00;;;;;;5112550;28;20040;-73
2021/04/05 01:29:59;;;;;;;5.28;2.75;;;5.60;76.00;;;;;;5113267;28;20557;-73
2021/04/05 01:32:25;;;;;;;5.50;3.25;;;5.60;76.00;;;;;;5113659;28;20131;-73
2021/04/05 01:34:50;;;;;;;6.45;3.25;;;5.60;76.00;;;;;;5109445;28;20067;-72
2021/04/05 01:37:16;;;;;;;6.78;3.20;;;5.60;76.00;;;;;;5113337;28;20397;-73
2021/04/05 01:39:42;;;;;;;5.22;2.92;;;5.60;76.00;;;;;;5113394;28;20052;-73
2021/04/05 01:42:08;;;;;;;7.53;3.30;;;5.70;76.00;;;;;;5113794;28;20040;-72
2021/04/05 01:44:34;;;;;;;4.78;2.67;;;5.70;76.00;;;;;;5095060;28;20105;-73
2021/04/05 01:47:01;;;;;;;7.63;3.53;;;5.80;76.00;;;;;;5095649;28;20028;-73
2021/04/05 01:49:27;;;;;;;6.88;3.33;;;5.80;75.90;;;;;;5113504;28;20047;-73
2021/04/05 01:51:53;;;;;;;6.15;3.10;;;5.80;75.90;;;;;;5113028;28;20412;-73
2021/04/05 01:54:19;;;;;;;6.55;3.08;;;5.90;75.90;;;;;;5112903;28;20118;-72
2021/04/05 01:56:45;;;;;;;6.63;3.10;;;5.90;75.90;;;;;;5112946;28;20115;-73
2021/04/05 01:59:12;;;;;;;6.80;3.55;;;5.90;75.80;;;;;;5094878;28;20040;-72
2021/04/05 02:01:38;;;;;;;7.65;3.92;;;6.00;75.90;;;;;;5112804;28;20401;-72
2021/04/05 02:04:05;;;;;;;8.80;4.13;;;6.00;76.00;;;;;;5112880;28;20075;-73
2021/04/05 02:06:33;;;;;;;8.93;3.70;;;6.00;76.00;;;;;;5112815;28;20044;-75
2021/04/05 02:09:00;;;;;;;8.07;3.90;;;6.00;76.10;;;;;;5112898;28;20070;-74
2021/04/05 02:11:32;;;;;;;6.53;3.67;;;6.10;76.20;;;;;;5112607;28;20043;-75
2021/04/05 02:13:58;;;;;;;6.05;3.10;;;6.10;76.20;;;;;;5113047;28;20067;-73
2021/04/05 02:16:27;;;;;;;8.18;4.10;;;6.10;76.20;;;;;;5095018;28;20078;-72
2021/04/05 02:18:54;;;;;;;5.78;3.20;;;6.20;76.30;;;;;;5112412;28;20035;-73
2021/04/05 02:21:24;;;;;;;7.60;4.07;;;6.20;76.30;;;;;;5112680;28;20047;-72
2021/04/05 02:23:51;;;;;;;7.30;4.10;;;6.20;76.40;;;;;;5112465;28;20028;-73
2021/04/05 02:26:19;;;;;;;9.98;4.53;;;6.20;76.50;;;;;;5112637;28;20088;-72
2021/04/05 02:28:48;;;;;;;8.35;4.25;;;6.30;76.60;;;;;;5094551;28;20582;-72
2021/04/05 02:31:16;;;;;;;8.68;4.35;;;6.30;76.60;;;;;;5095065;28;20552;-72
2021/04/05 02:33:45;;;;;;;9.43;4.25;;;6.30;76.70;;;;;;5112537;28;20051;-72
2021/04/05 02:36:13;;;;;;;8.20;3.72;;;6.30;76.70;;;;;;5112763;28;20043;-74
2021/04/05 02:38:44;;;;;;;8.45;3.38;;;6.30;76.80;;;;;;5112233;28;20039;-72
2021/04/05 02:41:11;;;;;;;6.57;3.70;;;6.30;76.80;;;;;;5112715;28;20047;-73
2021/04/05 02:43:41;;;;;;;7.95;3.80;;;6.40;76.90;;;;;;5093287;28;20111;-72
2021/04/05 02:46:12;;;;;;;5.95;3.20;;;6.40;77.00;;;;;;5094554;28;20027;-72
2021/04/05 02:48:44;;;;;;;6.90;3.55;;;6.30;77.00;;;;;;5094032;28;20142;-73
2021/04/05 02:51:10;;;;;;;;;;;6.40;77.10;;;;;;5113145;28;20099;-73
2021/04/05 02:53:40;;;;;;;8.88;4.00;;;6.50;77.20;;;;;;5112636;28;20331;-73
2021/04/05 02:56:08;;;;;;;6.65;3.70;;;6.40;77.10;;;;;;5112210;28;20040;-73
2021/04/05 02:58:38;;;;;;;7.18;3.47;;;6.40;77.00;;;;;;5111807;28;20393;-73
2021/04/05 03:01:06;;;;;;;7.10;3.72;;;6.50;77.10;;;;;;5093139;28;20094;-72
2021/04/05 03:03:32;;;;;;;7.72;3.65;;;6.50;77.20;;;;;;5112074;28;20040;-73
2021/04/05 03:05:58;;;;;;;8.38;3.78;;;6.60;77.30;;;;;;5093674;28;20067;-73
2021/04/05 03:08:26;;;;;;;8.93;4.40;;;6.60;77.40;;;;;;5112029;28;20039;-72
2021/04/05 03:10:51;;;;;;;7.35;3.15;;;6.70;77.50;;;;;;5111620;28;20066;-72
2021/04/05 03:13:18;;;;;;;8.32;3.35;;;6.60;77.40;;;;;;5111839;28;20541;-72
2021/04/05 03:15:44;;;;;;;6.82;3.38;;;6.60;77.50;;;;;;5112432;28;20032;-72
2021/04/05 03:18:10;;;;;;;7.43;3.40;;;6.70;77.60;;;;;;5111944;28;20039;-72
2021/04/05 03:20:37;;;;;;;6.95;3.10;;;6.70;77.70;;;;;;5112306;28;20374;-72
2021/04/05 03:23:03;;;;;;;6.47;3.00;;;6.70;77.70;;;;;;5112268;28;20067;-72
2021/04/05 03:25:30;;;;;;;5.80;2.90;;;6.70;77.80;;;;;;5111913;28;20043;-72
2021/04/05 03:27:56;;;;;;;5.70;2.72;;;6.70;77.80;;;;;;5111683;28;20044;-73
2021/04/05 03:30:26;;;;;;;6.93;2.95;;;6.70;77.90;;;;;;5111626;28;20425;-72
2021/04/05 03:32:58;;;;;;;5.70;2.60;;;6.80;78.00;;;;;;5112224;28;20059;-72
2021/04/05 03:35:32;;;;;;;8.50;3.00;;;6.70;78.00;;;;;;5092316;28;20036;-73
2021/04/05 03:37:59;;;;;;;6.35;2.70;;;6.70;78.10;;;;;;5112118;28;20037;-72
2021/04/05 03:40:26;;;;;;;6.72;2.80;;;6.70;78.20;;;;;;5111787;28;20101;-72
2021/04/05 03:43:07;;;;;;;6.15;3.20;;;6.70;78.20;;;;;;5093466;28;20401;-72
2021/04/05 03:45:45;;;;;;;8.00;2.95;;;6.70;78.40;;;;;;5107607;28;20132;-73
2021/04/05 03:48:19;;;;;;;7.05;3.03;;;6.70;78.50;;;;;;5111629;28;20489;-72
2021/04/05 03:51:05;;;;;;;5.05;2.67;;;6.70;78.50;;;;;;5113529;28;20055;-72
2021/04/05 03:53:49;;;;;;;4.70;2.58;;;6.70;78.60;;;;;;5097676;28;20465;-72
2021/04/05 03:56:21;;;;;;;8.32;3.15;;;6.60;78.80;;;;;;5114728;28;20052;-72
2021/04/05 03:58:50;;;;;;;9.95;3.90;;;6.70;78.80;;;;;;5115347;28;20035;-72
2021/04/05 04:01:23;;;;;;;6.82;3.35;;;6.60;79.50;;;;;;5114919;28;20050;-72
2021/04/05 04:03:59;;;;;;;6.55;3.33;;;6.70;79.00;;;;;;5114919;28;20036;-72
2021/04/05 04:06:33;;;;;;;6.20;3.70;;;6.60;79.00;;;;;;5112231;28;20042;-72
2021/04/05 04:09:01;;;;;;;5.90;2.85;;;6.70;79.20;;;;;;5115131;28;20043;-73
2021/04/05 04:11:29;;;;;;;7.95;3.90;;;6.60;79.10;;;;;;5114527;28;20035;-73
2021/04/05 04:14:00;;;;;;;8.15;3.50;;;6.60;79.20;;;;;;5114739;28;20055;-74
2021/04/05 04:16:28;;;;;;;6.63;3.15;;;6.60;79.90;;;;;;5114703;28;20046;-73
2021/04/05 04:18:58;;;;;;;6.35;2.92;;;6.60;79.30;;;;;;5115018;28;20043;-72
2021/04/05 04:21:24;;;;;;;6.18;2.80;;;6.60;79.40;;;;;;5097232;28;20036;-75
2021/04/05 04:23:50;;;;;;;7.82;3.40;;;6.70;79.50;;;;;;5114664;28;20078;-73
2021/04/05 04:26:16;;;;;;;7.78;3.42;;;6.70;79.60;;;;;;5114520;28;20036;-73
2021/04/05 04:28:44;;;;;;;8.63;3.80;;;6.70;79.60;;;;;;5095113;28;20039;-75
2021/04/05 04:31:10;;;;;;;8.23;3.45;;;6.70;79.70;;;;;;5095801;28;20042;-73
2021/04/05 04:33:36;;;;;;;7.50;3.30;;;6.70;79.70;;;;;;5113792;28;20046;-73
2021/04/05 04:36:02;;;;;;;7.00;3.75;;;6.70;79.70;;;;;;5114191;28;20036;-73
2021/04/05 04:38:28;;;;;;;5.90;3.03;;;6.70;79.70;;;;;;5114019;28;20048;-73
2021/04/05 04:40:55;;;;;;;8.52;3.30;;;6.70;79.70;;;;;;5096182;28;20046;-72
2021/04/05 04:43:21;;;;;;;5.30;2.92;;;6.80;79.80;;;;;;5113940;28;20043;-73
2021/04/05 04:45:46;;;;;;;11.10;3.42;;;6.80;79.80;;;;;;5114027;28;20044;-73
2021/04/05 04:48:13;;;;;;;7.03;3.53;;;6.90;79.80;;;;;;5114098;28;20046;-72
2021/04/05 04:50:40;;;;;;;7.35;3.17;;;6.80;79.70;;;;;;5114125;28;20067;-73
2021/04/05 04:53:06;;;;;;;7.18;3.25;;;6.90;79.80;;;;;;5114255;28;20050;-73
2021/04/05 04:55:32;;;;;;;6.70;3.38;;;6.90;80.40;;;;;;5113993;28;20126;-73
2021/04/05 04:57:59;;;;;;;7.15;3.58;;;7.00;79.80;;;;;;5078475;28;20078;-73
2021/04/05 05:00:27;;;;;;;5.30;2.83;;;7.00;79.80;;;;;;5095281;28;20040;-73
2021/04/05 05:02:54;;;;;;;7.22;3.40;;;7.10;79.80;;;;;;5113336;28;20099;-73
2021/04/05 05:05:23;;;;;;;6.47;3.13;;;7.00;79.80;;;;;;5114219;28;20457;-73
2021/04/05 05:07:50;;;;;;;4.97;2.67;;;7.10;79.80;;;;;;5114621;28;20044;-73
2021/04/05 05:10:17;;;;;;;6.15;2.65;;;7.10;79.80;;;;;;5113707;28;20036;-73
2021/04/05 05:12:44;;;;;;;4.82;2.90;;;7.10;79.80;;;;;;5093819;28;20513;-73
2021/04/05 05:15:12;;;;;;;7.07;3.20;;;7.10;79.80;;;;;;5113813;28;20031;-73
2021/04/05 05:17:41;;;;;;;6.65;2.78;;;7.20;79.80;;;;;;5113987;28;20044;-74
2021/04/05 05:20:08;;;;;;;4.18;2.10;;;7.20;79.80;;;;;;5113924;28;20069;-73
2021/04/05 05:22:37;;;;;;;6.03;2.35;;;7.40;79.90;;;;;;5113564;28;20047;-73
2021/04/05 05:25:05;;;;;;;5.95;2.58;;;7.30;79.80;;;;;;5095573;28;20122;-73
2021/04/05 05:27:35;;;;;;;5.60;2.70;;;7.30;79.80;;;;;;5095535;28;20075;-73
2021/04/05 05:30:05;;;;;;;4.30;2.50;;;7.40;79.80;;;;;;5113627;28;20044;-74
2021/04/05 05:32:31;;;;;;;6.88;2.72;;;7.50;79.70;;;;;;5113335;28;20065;-73
2021/04/05 05:34:57;;;;;;;6.30;2.90;;;7.60;79.70;;;;;;5113661;28;20457;-73
2021/04/05 05:37:23;;;;;;;6.03;2.55;;;7.60;79.60;;;;;;5095534;28;20071;-74
2021/04/05 05:39:48;;;;;;;5.53;2.28;;;7.60;79.50;;;;;;5113522;28;20050;-74
2021/04/05 05:42:32;;;;;;;5.20;2.53;;;7.70;79.40;;;;;;5113942;28;20123;-72
2021/04/05 05:45:06;;;;;;;6.05;2.88;;;7.70;79.30;;;;;;5113482;28;20036;-73
2021/04/05 05:47:57;;;;;;;5.72;3.03;;;7.80;79.30;;;;;;5113387;28;20039;-72
2021/04/05 05:50:32;;;;;;;4.75;2.42;;;7.80;79.10;;;;;;5113440;28;20173;-72
2021/04/05 05:53:19;;;;;;;3.97;1.75;;;7.70;79.10;;;;;;5113019;28;20039;-72
2021/04/05 05:56:04;;;;;;;4.32;1.30;;;7.30;79.60;;;;;;5113322;28;20077;-72
2021/04/05 05:58:46;;;;;;;2.92;1.08;;;7.00;80.40;;;;;;5112896;28;20036;-72
2021/04/05 06:01:47;;;;;;;3.05;0.85;;;6.70;80.90;;;;;;5112891;28;20055;-72
2021/04/05 06:04:51;;;;;;;2.08;0.70;;;6.50;81.40;;;;;;5100243;28;20096;-72
2021/04/05 06:07:42;;;;;;;0.82;0.60;;;6.40;81.70;;;;;;5094548;28;20043;-72
2021/04/05 06:10:17;;;;;;;1.38;0.70;;;6.20;81.80;;;;;;5112724;28;20185;-72
2021/04/05 06:13:01;;;;;;;1.88;0.60;;;6.20;81.90;;;;;;5093613;28;20127;-72
2021/04/05 06:15:29;;;;;;;3.03;0.75;;;6.10;81.90;;;;;;5093933;28;20040;-72
2021/04/05 06:18:13;;;;;;;1.13;0.38;;;6.00;81.90;;;;;;5112750;28;20036;-73
2021/04/05 06:20:53;;;;;;;1.05;0.45;;;6.00;82.00;;;;;;5112731;28;20039;-73
2021/04/05 06:23:46;;;;;;;1.15;0.40;;;6.00;82.00;;;;;;5112785;28;20050;-73
2021/04/05 06:26:21;;;;;;;1.60;0.40;;;5.90;82.00;;;;;;5094615;28;20127;-72
2021/04/05 06:29:07;;;;;;;0.17;0.17;;;5.90;82.00;;;;;;5112543;28;20039;-73
2021/04/05 06:31:45;;;;;;;0.77;0.20;;;6.00;82.00;;;;;;5112486;28;20501;-73
2021/04/05 06:34:45;;;;;;;0.98;0.30;;;5.90;82.00;;;;;;5112340;28;20035;-73
2021/04/05 06:37:35;;;;;;;1.10;0.80;;;5.90;81.90;;;;;;5078885;28;20444;-73
2021/04/05 06:40:06;;;;;;;0.70;0.40;;;5.90;81.90;;;;;;5112448;28;20043;-73
2021/04/05 06:42:42;;;;;;;;;;;5.90;81.90;;;;;;5112902;28;20064;-73
2021/04/05 06:45:43;;;;;;;0.52;0.15;;;5.80;81.80;;;;;;5112163;28;19918;-74
2021/04/05 06:48:35;;;;;;;0.22;0.20;;;5.80;81.70;;;;;;5112485;28;20047;-73
2021/04/05 06:51:11;;;;;;;0.22;0.20;;;5.90;81.70;;;;;;5112326;28;20104;-73
2021/04/05 06:54:03;;;;;;;0.40;0.20;;;5.80;81.60;;;;;;5112385;28;20481;-73
2021/04/05 06:56:45;;;;;;;0.95;0.30;;;5.90;81.60;;;;;;5112402;28;20035;-73
2021/04/05 06:59:29;;;;;;;2.10;0.32;;;5.90;81.40;;;;;;5113293;28;20035;-74
2021/04/05 07:02:26;;;;;;;1.00;0.25;;;5.90;81.30;;;;;;5113294;28;20115;-74
2021/04/05 07:05:09;;;;;;;0.52;0.30;;;5.80;81.90;;;;;;5109272;28;20043;-74
2021/04/05 07:07:44;;;;;;;0.52;0.20;;;5.80;81.20;;;;;;5112637;28;20048;-73
2021/04/05 07:10:19;;;;;;;0.57;0.20;;;5.80;81.20;;;;;;5112289;28;20040;-73
2021/04/05 07:13:03;;;;;;;0.50;0.20;;;5.80;81.10;;;;;;5112072;28;20043;-73
2021/04/05 07:15:45;;;;;;;1.20;0.28;;;5.90;81.10;;;;;;5112038;28;20064;-72
2021/04/05 07:18:43;;;;;;;0.70;0.30;;;5.70;81.00;;;;;;5112424;28;20119;-73
2021/04/05 07:21:49;;;;;;;2.30;0.47;;;5.70;81.30;;;;;;5099365;28;20423;-73
2021/04/05 07:24:31;;;;;;;0.57;0.30;;;5.70;81.40;;;;;;5096859;28;20067;-74
2021/04/05 07:27:06;;;;;;;0.15;0.10;;;5.60;81.40;;;;;;5097288;28;20097;-73
2021/04/05 07:29:43;;;;;;;0.43;0.30;;;5.50;81.50;;;;;;5115629;28;20047;-73
2021/04/05 07:32:26;;;;;;;0.70;0.30;;;5.30;81.60;;;;;;5115712;28;20131;-73
2021/04/05 07:35:06;;;;;;;2.97;0.50;;;5.40;81.70;;;;;;5098894;28;20115;-72
2021/04/05 07:37:46;;;;;;;1.20;0.20;;;5.30;81.70;;;;;;5080977;28;20493;-73
2021/04/05 07:40:35;;;;;;;1.08;0.20;;;5.10;81.80;;;;;;5115073;28;20035;-73
2021/04/05 07:43:06;;;;;;;1.95;0.40;;;5.10;82.20;;;;;;5115118;28;20519;-73
2021/04/05 07:45:55;;;;;;;0.70;0.40;;;4.90;82.20;;;;;;5115225;28;20048;-72
2021/04/05 07:48:32;;;;;;;2.45;0.50;;;4.90;82.30;;;;;;5100556;28;20500;-72
2021/04/05 07:51:10;;;;;;;3.33;1.00;;;4.80;82.50;;;;;;5115561;28;20047;-73
2021/04/05 07:53:57;;;;;;;5.32;1.08;;;4.70;82.30;;;;;;5115040;28;20098;-74
2021/04/05 07:56:44;;;;;;;2.00;0.60;;;4.60;82.30;;;;;;5115078;28;20052;-73
2021/04/05 07:59:38;;;;;;;2.00;0.57;;;4.60;82.30;;;;;;5114996;28;20047;-72
2021/04/05 08:02:20;;;;;;;1.85;0.55;;;4.50;82.30;;;;;;5097841;28;20100;-73
2021/04/05 08:05:08;;;;;;;4.90;0.77;;;4.50;82.20;;;;;;5115524;28;20039;-73
2021/04/05 08:07:59;;;;;;;2.05;0.60;;;4.60;82.10;;;;;;5114978;28;20538;-73
2021/04/05 08:10:58;;;;;;;3.42;0.70;;;4.50;82.00;;;;;;5114837;28;20088;-72
2021/04/05 08:13:41;;;;;;;2.85;0.63;;;4.50;82.00;;;;;;5114624;28;21185;-72
2021/04/05 08:16:22;;;;;;;3.80;0.90;;;4.40;81.90;;;;;;5114959;28;20039;-72
2021/04/05 08:19:02;;;;;;;2.85;0.77;;;4.40;81.90;;;;;;5115360;28;20039;-72
2021/04/05 08:21:37;;;;;;;1.73;0.50;;;4.40;81.90;;;;;;5115038;28;20089;-72
2021/04/05 08:24:29;;;;;;;2.47;0.55;;;4.40;81.70;;;;;;5115234;28;20043;-72
2021/04/05 08:27:09;;;;;;;4.30;0.88;;;4.50;81.40;;;;;;5096493;28;20031;-73
2021/04/05 08:29:45;;;;;;;1.77;0.70;;;4.60;80.90;;;;;;5096359;28;20043;-73
2021/04/05 08:32:34;;;;;;;2.85;0.70;;;4.70;80.70;;;;;;5114519;28;20097;-73
2021/04/05 08:35:14;;;;;;;2.40;0.65;;;4.70;80.40;;;;;;5096419;28;20039;-73
2021/04/05 08:38:00;;;;;;;3.67;0.60;;;4.90;80.20;;;;;;5097502;28;20122;-73
2021/04/05 08:40:40;;;;;;;2.40;0.88;;;4.90;80.00;;;;;;5114355;28;20035;-73
2021/04/05 08:43:24;;;;;;;3.10;0.70;;;4.90;79.60;;;;;;5114525;28;20047;-74
2021/04/05 08:45:59;;;;;;;2.50;0.68;;;5.00;79.10;;;;;;5114950;28;20047;-73
2021/04/05 08:48:29;;;;;;;4.85;0.70;;;5.10;78.80;;;;;;5114666;28;20043;-72
2021/04/05 08:51:01;;;;;;;1.55;0.63;;;5.20;78.50;;;;;;5114113;28;20062;-73
2021/04/05 08:53:32;;;;;;;7.78;0.70;;;5.30;78.40;;;;;;5114399;28;20074;-73
2021/04/05 08:55:59;;;;;;;1.50;0.70;;;5.40;78.00;;;;;;5095102;28;20127;-74
2021/04/05 08:58:45;;;;;;;3.40;1.08;;;5.50;77.60;;;;;;5114255;28;20035;-74
2021/04/05 09:01:18;;;;;;;2.83;0.80;;;5.60;76.90;;;;;;5113743;28;20040;-74
2021/04/05 09:03:47;;;;;;;1.52;0.50;;;5.60;76.50;;;;;;5095831;28;20113;-73
2021/04/05 09:06:16;;;;;;;4.18;0.73;;;5.70;76.40;;;;;;5095168;28;20097;-74
2021/04/05 09:08:44;;;;;;;2.33;0.57;;;5.70;75.70;;;;;;5095493;28;20048;-73
2021/04/05 09:11:13;;;;;;;2.58;0.70;;;5.60;75.50;;;;;;5113979;28;20039;-74
2021/04/05 09:13:58;;;;;;;3.55;0.70;;;5.60;75.50;;;;;;5096212;28;20043;-73
2021/04/05 09:17:02;;;;;;;2.67;0.60;;;5.60;75.40;;;;;;5114219;28;20121;-73
2021/04/05 09:20:02;;;;;;;3.20;0.82;;;5.50;75.10;;;;;;5113885;28;20046;-73
2021/04/05 09:22:51;;;;;;;0.75;0.50;;;5.20;75.00;;;;;;5094568;28;20406;-73
2021/04/05 09:25:34;;;;;;;2.33;0.52;;;4.90;75.80;;;;;;5114079;28;20035;-73
2021/04/05 09:28:31;;;;;;;1.85;0.50;;;4.90;76.10;;;;;;5113420;28;20524;-72
2021/04/05 09:31:33;;;;;;;0.80;0.30;;;4.90;75.80;;;;;;5098700;28;20577;-72
2021/04/05 09:34:28;;;;;;;1.48;0.30;;;4.90;75.60;;;;;;5113237;28;20134;-73
2021/04/05 09:37:24;;;;;;;0.45;0.20;;;4.90;75.50;;;;;;5098390;28;20043;-73
2021/04/05 09:40:20;;;;;;;1.25;0.30;;;4.70;75.80;;;;;;5113230;28;20442;-73
2021/04/05 09:43:20;;;;;;;0.10;0.10;;;4.60;76.50;;;;;;5113566;28;20040;-73
2021/04/05 09:46:11;;;;;;;1.33;0.20;;;4.60;76.70;;;;;;5095043;28;20482;-74
2021/04/05 09:48:55;;;;;;;0.35;0.20;;;4.70;76.60;;;;;;5112549;28;20475;-74
2021/04/05 09:51:51;;;;;;;0.55;0.22;;;4.60;76.10;;;;;;5095119;28;20046;-74
2021/04/05 09:54:41;;;;;;;0.47;0.20;;;4.70;76.10;;;;;;5096634;28;20100;-73
2021/04/05 09:57:15;;;;;;;1.38;0.20;;;4.60;76.10;;;;;;5113566;28;20491;-73
2021/04/05 09:59:58;;;;;;;1.02;0.25;;;4.70;75.90;;;;;;5113620;28;20033;-74
2021/04/05 10:02:54;;;;;;;0.40;0.20;;;4.60;75.90;;;;;;5113495;28;20044;-73
2021/04/05 10:05:23;;;;;;;1.23;0.38;;;4.70;75.90;;;;;;5076989;28;20043;-74
2021/04/05 10:07:51;;;;;;;1.70;0.63;;;4.80;75.40;;;;;;5113362;28;20043;-73
2021/04/05 10:10:18;;;;;;;1.40;0.28;;;4.70;75.00;;;;;;5112836;28;20100;-74
2021/04/05 10:12:47;;;;;;;2.15;0.40;;;4.70;75.00;;;;;;5113107;28;20465;-74
2021/04/05 10:15:18;;;;;;;1.42;0.65;;;4.80;74.90;;;;;;5112919;28;20054;-75
2021/04/05 10:17:51;;;;;;;2.20;0.50;;;4.90;74.60;;;;;;5113243;28;20546;-74
2021/04/05 10:20:17;;;;;;;2.40;0.50;;;4.90;74.30;;;;;;5112842;28;20273;-75
2021/04/05 10:22:46;;;;;;;1.05;0.30;;;4.80;73.90;;;;;;5096502;28;20058;-74
2021/04/05 10:25:15;;;;;;;1.73;0.63;;;4.80;74.00;;;;;;5112970;28;20127;-73
2021/04/05 10:27:42;;;;;;;2.17;0.57;;;4.60;73.70;;;;;;5112938;28;20078;-75
2021/04/05 10:30:13;;;;;;;3.63;0.60;;;4.30;74.20;;;;;;5112781;28;20039;-73
2021/04/05 10:32:41;;;;;;;1.90;0.52;;;4.20;74.70;;;;;;5112752;28;20071;-73
2021/04/05 10:35:11;;;;;;;3.08;1.00;;;4.10;74.90;;;;;;5112916;28;20103;-74
2021/04/05 10:37:43;;;;;;;2.80;1.00;;;4.10;74.80;;;;;;5093218;28;20123;-75
2021/04/05 10:40:18;;;;;;;2.72;0.82;;;4.20;74.80;;;;;;5113088;28;20074;-74
2021/04/05 10:42:50;;;;;;;2.40;0.93;;;4.30;74.70;;;;;;5112540;28;20035;-74
2021/04/05 10:45:20;;;;;;;1.33;0.73;;;4.50;74.40;;;;;;5077345;28;20379;-74
2021/04/05 10:48:09;;;;;;;2.13;0.75;;;4.70;74.70;;;;;;5112360;28;20070;-74
2021/04/05 10:50:44;;;;;;;3.28;1.42;;;5.00;73.20;;;;;;5112502;28;20046;-74
2021/04/05 10:53:14;;;;;;;2.95;1.00;;;5.00;72.40;;;;;;5112470;28;20050;-75
2021/04/05 10:55:45;;;;;;;3.05;0.70;;;4.80;72.00;;;;;;5094446;28;20071;-75
2021/04/05 10:58:17;;;;;;;2.55;0.63;;;4.60;72.20;;;;;;5094325;28;20126;-73
2021/04/05 11:00:50;;;;;;;1.95;0.60;;;4.60;72.20;;;;;;5114628;28;20063;-72
2021/04/05 11:03:21;;;;;;;1.20;0.50;;;4.60;72.20;;;;;;5080661;28;20505;-73
2021/04/05 11:05:50;;;;;;;3.28;0.57;;;4.70;71.80;;;;;;5097994;28;20134;-73
2021/04/05 11:08:21;;;;;;;1.85;0.43;;;4.80;71.70;;;;;;5097907;28;20132;-73
2021/04/05 11:10:49;;;;;;;2.17;0.65;;;4.80;71.20;;;;;;5097734;28;20043;-73
2021/04/05 11:13:19;;;;;;;2.00;0.60;;;4.80;71.10;;;;;;5116048;28;20047;-73
2021/04/05 11:15:47;;;;;;;0.57;0.35;;;5.10;70.90;;;;;;5116153;28;20051;-73
2021/04/05 11:18:16;;;;;;;1.95;0.70;;;5.20;70.10;;;;;;5097864;28;20039;-72
2021/04/05 11:20:44;;;;;;;0.57;0.32;;;5.30;69.80;;;;;;5116304;28;20111;-73
2021/04/05 11:23:15;;;;;;;3.13;0.75;;;5.20;69.70;;;;;;5095643;28;20442;-73
2021/04/05 11:25:46;;;;;;;1.23;0.40;;;5.00;69.90;;;;;;5095586;28;20048;-73
2021/04/05 11:28:20;;;;;;;0.85;0.30;;;4.50;70.40;;;;;;5115747;28;20057;-73
2021/04/05 11:30:50;;;;;;;2.17;0.40;;;4.10;71.50;;;;;;5115341;28;20040;-73
2021/04/05 11:33:25;;;;;;;3.00;0.75;;;3.90;72.40;;;;;;5115511;28;20055;-74
2021/04/05 11:35:52;;;;;;;0.65;0.40;;;3.80;72.50;;;;;;5115573;28;20055;-72
2021/04/05 11:38:20;;;;;;;4.28;0.70;;;3.80;72.30;;;;;;5096207;28;20038;-73
2021/04/05 11:40:49;;;;;;;1.75;0.50;;;3.60;71.80;;;;;;5097831;28;20129;-73
2021/04/05 11:43:17;;;;;;;0.98;0.40;;;3.50;72.00;;;;;;5115355;28;20036;-74
2021/04/05 11:45:47;;;;;;;1.13;0.30;;;3.60;72.00;;;;;;5114962;28;20405;-71
2021/04/05 11:48:20;;;;;;;2.00;0.70;;;3.90;71.70;;;;;;5115040;28;20047;-72
2021/04/05 11:50:46;;;;;;;0.50;0.40;;;4.20;70.80;;;;;;5097212;28;20036;-73
2021/04/05 11:53:45;;;;;;;0.90;0.35;;;4.60;70.40;;;;;;5115586;28;20048;-75
2021/04/05 11:56:20;;;;;;;4.55;0.73;;;4.80;69.30;;;;;;5100296;28;20035;-74
2021/04/05 11:59:03;;;;;;;2.15;0.47;;;5.10;68.90;;;;;;5095184;28;20036;-74
2021/04/05 12:01:38;;;;;;;1.58;0.60;;;5.20;68.00;;;;;;5115056;28;20036;-75
2021/04/05 12:04:13;;;;;;;1.77;0.50;;;5.40;67.70;;;;;;5114857;28;20131;-76
2021/04/05 12:06:43;;;;;;;2.50;0.65;;;5.60;67.50;;;;;;5063711;28;20047;-75
2021/04/05 12:09:15;;;;;;;2.28;0.68;;;5.60;66.90;;;;;;5096667;28;20051;-75
2021/04/05 12:11:48;;;;;;;3.30;0.75;;;5.60;66.70;;;;;;5114396;28;20044;-74
2021/04/05 12:14:23;;;;;;;1.42;0.65;;;5.50;66.80;;;;;;5114728;28;20067;-74
2021/04/05 12:16:52;;;;;;;1.17;0.50;;;5.30;67.00;;;;;;5095316;28;20436;-74
2021/04/05 12:19:23;;;;;;;2.35;0.50;;;4.80;67.60;;;;;;5097574;28;20498;-74
2021/04/05 12:21:51;;;;;;;0.68;0.20;;;4.50;68.80;;;;;;5114774;28;20032;-75
2021/04/05 12:24:25;;;;;;;1.75;0.30;;;4.50;69.60;;;;;;5114955;28;20032;-75
2021/04/05 12:26:56;;;;;;;2.30;0.30;;;4.60;69.70;;;;;;5114982;28;20042;-74
2021/04/05 12:29:25;;;;;;;0.90;0.30;;;4.90;69.30;;;;;;5080490;28;20043;-76
2021/04/05 12:31:53;;;;;;;0.93;0.30;;;5.00;68.50;;;;;;5114597;28;20043;-76
2021/04/05 12:34:21;;;;;;;0.82;0.38;;;5.20;67.90;;;;;;5096867;28;20035;-76
2021/04/05 12:36:46;;;;;;;3.17;0.55;;;5.10;67.30;;;;;;5098741;28;20060;-76
2021/04/05 12:39:13;;;;;;;2.03;0.70;;;5.10;67.20;;;;;;5098150;28;20519;-75
2021/04/05 12:41:42;;;;;;;1.80;0.50;;;5.10;67.60;;;;;;5115141;28;20469;-74
2021/04/05 12:44:13;;;;;;;1.67;0.40;;;5.10;67.50;;;;;;5114262;28;20120;-74
2021/04/05 12:46:41;;;;;;;2.88;0.40;;;5.00;67.60;;;;;;5114304;28;20132;-74
2021/04/05 12:49:08;;;;;;;0.88;0.45;;;5.00;68.00;;;;;;5096398;28;20473;-74
2021/04/05 12:51:35;;;;;;;2.00;0.38;;;5.00;68.20;;;;;;5114360;28;20031;-75
2021/04/05 12:54:06;;;;;;;1.35;0.65;;;5.20;68.40;;;;;;5115134;28;20043;-76
2021/04/05 12:56:33;;;;;;;0.60;0.50;;;5.20;68.90;;;;;;5115331;28;20052;-75
2021/04/05 12:59:01;;;;;;;0.22;0.22;;;5.30;68.20;;;;;;5096084;28;20075;-77
2021/04/05 13:01:34;;;;;;;0.75;0.30;;;5.40;68.10;;;;;;5114490;28;20435;-76
2021/04/05 13:04:02;;;;;;;1.55;0.28;;;5.40;67.90;;;;;;5114503;28;20047;-77
2021/04/05 13:06:36;;;;;;;2.28;0.50;;;5.30;67.90;;;;;;5114295;28;20040;-76
2021/04/05 13:09:12;;;;;;;0.65;0.30;;;5.30;68.20;;;;;;5114808;28;20040;-75
2021/04/05 13:11:46;;;;;;;2.83;0.55;;;5.30;68.20;;;;;;5096944;28;20067;-75
2021/04/05 13:14:23;;;;;;;0.90;0.25;;;5.20;68.00;;;;;;5114788;28;20042;-75
2021/04/05 13:17:09;;;;;;;0.50;0.20;;;5.20;68.00;;;;;;5115726;28;20040;-76
2021/04/05 13:19:43;;;;;;;3.13;0.38;;;5.10;67.60;;;;;;5114582;28;20462;-75
2021/04/05 13:22:15;;;;;;;3.03;0.50;;;5.00;67.40;;;;;;5094821;28;20043;-75
2021/04/05 13:24:47;;;;;;;0.77;0.30;;;5.00;67.40;;;;;;5078208;28;20051;-75
2021/04/05 13:27:20;;;;;;;1.58;0.32;;;4.90;67.00;;;;;;5114163;28;20508;-74
2021/04/05 13:29:46;;;;;;;0.90;0.30;;;5.00;66.90;;;;;;5113759;28;20512;-75
2021/04/05 13:32:14;;;;;;;1.73;0.40;;;4.90;66.70;;;;;;5095576;28;20446;-73